Terminal Aerodrome Forecast
Issued by NWS

Home | Current Version | Previous Version | Text Only | Print | Product List | Glossary Off
Versions: 1 2 3 4 5 6 7 8 9 10 11 12 13 14 15 16 17

985
FTUS43 KICT 241602 AAA
TAFSLN
TAF AMD
KSLN 241602Z 2416/2512 17012G18KT P6SM VCTS SCT040 BKN080CB
      TEMPO 2416/2418 3SM TSRA SCT015 BKN030CB
     FM241900 17014KT P6SM -SHRA VCTS BKN040CB
     FM250000 15010KT P6SM -SHRA VCTS BKN040CB
     FM250600 25004KT P6SM BKN080
     FM251000 31006KT P6SM BKN080=

USA.gov is the U.S. government's official web portal to all federal, state and local government web resources and services.